San Jose, California
Current Conditions -  °F | °C
As of 9:53 PM on Saturday 22 Nov 2014 (Local Time) from KSJC Reporting Station
Few Clouds Few Clouds  
Wind Chill: 53°   Ceiling: Unl
Heat Index: 53°   Visibility: 10mi
Dew Point: 48°   Wind: 7mph
Humidity: 83%   Direction: 250°WSW
Pressure: 30.23"   Gusts: NA
Location:  37.35°N, 121.9°W
Report Text: KSJC 230553Z 25006KT 10SM FEW030 12/09 A3023 RMK AO2 SLP236 T01170089 10167 20117 52017
Loading
Personal Weather Stations






























Interactive Weather Map New forecast layout! Learn more

10-Day Weather Forecast

Advertisements
Track Severe Weather on mobile